Time;durP1;ratioP1;P1;durP2;ratioP2;P2;SDS_P1;SDS_P2;PMS_P1;PMS_P2;Temp;Humidity;BMP_temperature;BMP_pressure;BME280_temperature;BME280_humidity;BME280_pressure;Samples;Min_cycle;Max_cycle;Signal;HPM_P1;HPM_P2
2023/04/05 00:01:24;;;;;;;4.10;3.03;;;19.00;91.80;;;;;;5081968;28;20027;-57
2023/04/05 00:03:51;;;;;;;4.90;3.00;;;19.00;91.90;;;;;;5083897;28;20023;-57
2023/04/05 00:06:17;;;;;;;3.45;2.45;;;19.00;91.90;;;;;;5065102;28;20032;-57
2023/04/05 00:08:48;;;;;;;3.78;2.53;;;19.00;91.90;;;;;;5060983;28;20020;-57
2023/04/05 00:11:15;;;;;;;4.55;2.85;;;19.00;91.90;;;;;;5079116;28;20026;-56
2023/04/05 00:13:40;;;;;;;4.68;2.22;;;19.00;91.70;;;;;;5079433;28;20081;-57
2023/04/05 00:16:06;;;;;;;3.38;2.72;;;18.90;91.90;;;;;;5082218;28;20391;-57
2023/04/05 00:18:33;;;;;;;4.25;2.75;;;18.90;91.90;;;;;;5084256;28;20099;-57
2023/04/05 00:20:58;;;;;;;2.78;2.38;;;18.90;91.90;;;;;;5066604;28;20052;-57
2023/04/05 00:23:25;;;;;;;4.78;2.72;;;18.90;91.90;;;;;;5082452;28;20062;-57
2023/04/05 00:25:50;;;;;;;3.78;2.53;;;18.90;91.90;;;;;;5083708;28;20036;-57
2023/04/05 00:28:16;;;;;;;5.15;2.90;;;18.90;91.90;;;;;;5080528;28;20043;-57
2023/04/05 00:30:41;;;;;;;4.13;2.95;;;18.90;91.90;;;;;;5078738;28;20024;-56
2023/04/05 00:33:07;;;;;;;3.13;2.55;;;18.90;91.90;;;;;;5078668;28;20032;-57
2023/04/05 00:35:32;;;;;;;4.65;3.00;;;18.90;92.00;;;;;;5082076;28;20478;-57
2023/04/05 00:37:58;;;;;;;3.30;2.38;;;18.90;92.00;;;;;;5082214;28;20079;-56
2023/04/05 00:40:24;;;;;;;4.70;2.50;;;18.90;92.00;;;;;;5084159;28;20070;-58
2023/04/05 00:42:49;;;;;;;3.03;2.55;;;18.90;92.00;;;;;;5084123;28;20069;-56
2023/04/05 00:45:15;;;;;;;3.63;2.58;;;18.80;92.00;;;;;;5082570;28;20055;-57
2023/04/05 00:47:40;;;;;;;4.38;2.55;;;18.80;92.00;;;;;;5082891;28;20131;-57
2023/04/05 00:50:07;;;;;;;4.10;2.47;;;18.80;92.00;;;;;;5083109;28;20016;-57
2023/04/05 00:52:33;;;;;;;5.63;2.63;;;18.80;92.00;;;;;;5068254;28;20059;-57
2023/04/05 00:54:58;;;;;;;2.92;2.60;;;18.80;92.00;;;;;;5064670;28;20490;-57
2023/04/05 00:57:25;;;;;;;2.55;2.00;;;18.80;92.00;;;;;;5069729;28;20096;-57
2023/04/05 00:59:50;;;;;;;2.67;2.17;;;18.80;92.00;;;;;;5069908;28;20032;-57
2023/04/05 01:02:44;;;;;;;2.47;2.15;;;18.80;92.00;;;;;;5086205;28;20027;-57
2023/04/05 01:05:28;;;;;;;2.47;2.28;;;18.80;92.00;;;;;;5086277;28;20032;-57
2023/04/05 01:08:00;;;;;;;3.78;2.25;;;18.80;92.00;;;;;;5083665;28;20048;-57
2023/04/05 01:10:30;;;;;;;4.38;2.55;;;18.80;92.10;;;;;;5083380;28;20056;-57
2023/04/05 01:12:55;;;;;;;4.35;2.17;;;18.80;92.00;;;;;;5049420;28;20436;-57
2023/04/05 01:15:21;;;;;;;5.30;2.67;;;18.80;92.10;;;;;;5069801;28;20016;-57
2023/04/05 01:17:47;;;;;;;3.05;2.08;;;18.80;92.10;;;;;;5087804;28;20028;-56
2023/04/05 01:20:14;;;;;;;6.43;2.75;;;18.80;92.10;;;;;;5085846;28;20024;-57
2023/04/05 01:23:13;;;;;;;4.00;2.70;;;18.70;92.00;;;;;;5069117;28;20059;-56
2023/04/05 01:26:12;;;;;;;2.63;2.13;;;18.70;92.10;;;;;;5087160;28;20043;-57
2023/04/05 01:28:57;;;;;;;3.22;2.40;;;18.70;92.10;;;;;;5081077;28;20596;-57
2023/04/05 01:31:39;;;;;;;3.38;2.42;;;18.70;92.10;;;;;;5047890;28;20568;-56
2023/04/05 01:34:31;;;;;;;3.00;2.55;;;18.70;92.10;;;;;;5045742;28;20024;-56
2023/04/05 01:37:00;;;;;;;3.50;2.35;;;18.70;92.10;;;;;;5067960;28;20119;-56
2023/04/05 01:39:26;;;;;;;2.50;2.30;;;18.70;92.10;;;;;;5087144;28;20075;-56
2023/04/05 01:41:51;;;;;;;3.10;2.20;;;18.70;92.10;;;;;;5068599;28;20056;-57
2023/04/05 01:44:17;;;;;;;3.20;2.42;;;18.60;92.10;;;;;;5067326;28;20062;-56
2023/04/05 01:46:42;;;;;;;2.53;1.85;;;18.60;92.10;;;;;;5086628;28;20043;-57
2023/04/05 01:49:08;;;;;;;3.40;2.28;;;18.60;92.10;;;;;;5085269;28;20020;-56
2023/04/05 01:51:33;;;;;;;4.63;2.53;;;18.60;92.10;;;;;;5083047;28;20069;-57
2023/04/05 01:53:59;;;;;;;3.40;2.35;;;18.60;92.10;;;;;;5083178;28;20024;-56
2023/04/05 01:56:26;;;;;;;4.80;2.08;;;18.60;92.10;;;;;;5081059;28;20534;-56
2023/04/05 01:58:51;;;;;;;3.20;2.38;;;18.60;92.10;;;;;;5084111;28;20459;-56
2023/04/05 02:01:17;;;;;;;1.98;1.77;;;18.60;92.10;;;;;;5086709;28;20056;-56
2023/04/05 02:03:42;;;;;;;2.47;1.80;;;18.60;92.10;;;;;;5081986;28;20455;-57
2023/04/05 02:06:08;;;;;;;2.40;2.20;;;18.60;92.10;;;;;;5073378;28;20109;-57
2023/04/05 02:08:33;;;;;;;2.80;2.00;;;18.60;92.10;;;;;;5075169;28;20436;-57
2023/04/05 02:10:59;;;;;;;2.72;2.20;;;18.60;92.20;;;;;;5071272;28;20028;-56
2023/04/05 02:13:25;;;;;;;2.58;2.30;;;18.60;92.40;;;;;;5071485;28;20052;-56
2023/04/05 02:15:50;;;;;;;4.03;2.40;;;18.60;92.20;;;;;;5063325;28;20112;-56
2023/04/05 02:18:21;;;;;;;2.70;1.90;;;18.60;92.20;;;;;;5076232;28;20436;-57
2023/04/05 02:20:48;;;;;;;2.90;2.22;;;18.50;92.10;;;;;;5086163;28;20028;-57
2023/04/05 02:23:14;;;;;;;4.60;2.08;;;19.40;92.40;;;;;;5066743;28;20052;-56
2023/04/05 02:25:40;;;;;;;2.75;2.17;;;18.50;92.10;;;;;;5084221;28;20078;-56
2023/04/05 02:28:05;;;;;;;4.05;2.42;;;18.50;92.10;;;;;;5079939;28;20051;-57
2023/04/05 02:30:32;;;;;;;2.47;1.98;;;18.50;92.10;;;;;;5086383;28;20047;-56
2023/04/05 02:32:57;;;;;;;2.30;2.05;;;18.60;92.10;;;;;;5082388;28;20055;-56
2023/04/05 02:35:23;;;;;;;2.90;2.20;;;18.50;92.10;;;;;;5085915;28;20101;-56
2023/04/05 02:37:48;;;;;;;4.22;2.35;;;18.50;92.10;;;;;;5086012;28;20115;-56
2023/04/05 02:40:14;;;;;;;2.30;2.10;;;18.50;92.10;;;;;;5084497;28;20099;-57
2023/04/05 02:42:40;;;;;;;2.78;2.03;;;19.10;92.20;;;;;;5085807;28;20613;-56
2023/04/05 02:45:07;;;;;;;3.97;2.20;;;18.50;92.10;;;;;;5081669;28;20111;-57
2023/04/05 02:47:33;;;;;;;2.97;1.90;;;18.50;92.10;;;;;;5080659;28;20024;-56
2023/04/05 02:49:58;;;;;;;2.65;2.17;;;18.50;92.10;;;;;;5081709;28;20359;-56
2023/04/05 02:52:24;;;;;;;2.35;2.03;;;18.50;92.10;;;;;;5079930;28;20028;-56
2023/04/05 02:54:49;;;;;;;3.17;1.77;;;18.50;92.20;;;;;;5083681;28;20024;-56
2023/04/05 02:57:15;;;;;;;3.88;2.10;;;18.50;92.10;;;;;;5083798;28;20024;-56
2023/04/05 02:59:41;;;;;;;3.35;1.95;;;18.50;92.10;;;;;;5085191;28;20483;-57
2023/04/05 03:02:08;;;;;;;2.00;1.85;;;18.50;92.20;;;;;;5083677;28;20035;-57
2023/04/05 03:04:33;;;;;;;3.40;1.85;;;18.50;92.10;;;;;;5083294;28;20109;-57
2023/04/05 03:07:03;;;;;;;2.97;1.98;;;18.50;92.10;;;;;;5081890;28;20459;-56
2023/04/05 03:09:32;;;;;;;1.83;1.73;;;18.50;92.10;;;;;;5081575;28;20540;-56
2023/04/05 03:12:02;;;;;;;6.55;2.00;;;18.50;92.10;;;;;;5080512;28;20028;-56
2023/04/05 03:14:28;;;;;;;2.20;1.80;;;18.50;92.10;;;;;;5085450;28;20015;-56
2023/04/05 03:16:53;;;;;;;2.17;1.95;;;18.40;92.10;;;;;;5085306;28;20382;-56
2023/04/05 03:19:21;;;;;;;2.22;1.75;;;18.40;92.10;;;;;;5083345;28;20024;-56
2023/04/05 03:21:47;;;;;;;2.38;2.15;;;18.50;92.10;;;;;;5067464;28;20095;-56
2023/04/05 03:24:13;;;;;;;3.58;2.30;;;18.40;92.10;;;;;;5083457;28;20024;-57
2023/04/05 03:26:38;;;;;;;1.88;1.67;;;18.40;92.10;;;;;;5079031;28;20125;-57
2023/04/05 03:29:04;;;;;;;3.13;1.90;;;18.40;92.10;;;;;;5079655;28;20316;-57
2023/04/05 03:31:29;;;;;;;2.20;2.00;;;18.40;92.10;;;;;;5081284;28;20115;-57
2023/04/05 03:33:55;;;;;;;2.13;1.60;;;18.40;92.10;;;;;;5082900;28;20032;-58
2023/04/05 03:36:21;;;;;;;3.45;1.60;;;18.40;92.10;;;;;;5084875;28;20028;-57
2023/04/05 03:38:46;;;;;;;3.30;1.75;;;18.40;92.10;;;;;;5084986;28;20081;-57
2023/04/05 03:41:12;;;;;;;1.67;1.58;;;18.40;92.10;;;;;;5082898;28;20031;-57
2023/04/05 03:43:37;;;;;;;3.33;2.00;;;18.40;92.10;;;;;;5080825;28;20028;-57
2023/04/05 03:46:03;;;;;;;2.33;1.98;;;18.40;92.10;;;;;;5079390;28;20078;-57
2023/04/05 03:48:28;;;;;;;1.92;1.70;;;18.40;92.10;;;;;;5080930;28;20020;-57
2023/04/05 03:50:55;;;;;;;2.75;1.73;;;18.40;92.00;;;;;;5078548;28;20115;-57
2023/04/05 03:53:20;;;;;;;2.17;1.95;;;18.40;92.00;;;;;;5082709;28;20119;-57
2023/04/05 03:55:49;;;;;;;2.47;1.60;;;18.40;92.00;;;;;;5084272;28;20506;-56
2023/04/05 03:58:15;;;;;;;2.67;2.00;;;18.40;92.00;;;;;;5075945;28;20032;-56
2023/04/05 04:00:41;;;;;;;2.85;2.15;;;18.40;92.00;;;;;;5066004;28;20031;-56
2023/04/05 04:03:08;;;;;;;1.73;1.50;;;18.40;92.00;;;;;;5082669;28;20028;-57
2023/04/05 04:05:37;;;;;;;2.88;1.60;;;18.30;91.90;;;;;;5084128;28;20534;-57
2023/04/05 04:08:06;;;;;;;2.90;1.85;;;18.30;92.00;;;;;;5082117;28;20438;-57
2023/04/05 04:10:32;;;;;;;2.15;1.77;;;18.30;91.90;;;;;;5086830;28;20047;-57
2023/04/05 04:12:58;;;;;;;2.28;1.75;;;18.30;91.90;;;;;;5065157;28;20043;-57
2023/04/05 04:15:23;;;;;;;2.22;1.90;;;18.30;92.00;;;;;;5083107;28;20517;-56
2023/04/05 04:17:49;;;;;;;2.20;1.80;;;18.30;91.90;;;;;;5084877;28;20032;-57
2023/04/05 04:20:14;;;;;;;1.90;1.67;;;18.30;92.00;;;;;;5082886;28;20028;-56
2023/04/05 04:22:40;;;;;;;2.35;1.63;;;18.30;92.00;;;;;;5100890;28;20493;-57
2023/04/05 04:25:09;;;;;;;3.45;1.45;;;18.30;92.00;;;;;;5081112;28;20045;-57
2023/04/05 04:27:37;;;;;;;2.85;1.90;;;18.30;91.90;;;;;;5079050;28;20509;-57
2023/04/05 04:30:05;;;;;;;2.25;1.88;;;18.30;91.80;;;;;;5079322;28;20063;-58
2023/04/05 04:35:19;;;;;;;2.88;1.95;;;18.30;91.80;;;;;;5101442;28;20031;-56
2023/04/05 04:37:45;;;;;;;2.90;1.85;;;18.30;91.80;;;;;;5084919;28;20030;-57
2023/04/05 04:40:17;;;;;;;2.38;2.03;;;18.30;91.70;;;;;;5088378;28;20088;-57
2023/04/05 04:42:45;;;;;;;3.47;2.20;;;18.30;91.80;;;;;;5086540;28;20040;-57
2023/04/05 04:45:15;;;;;;;2.50;1.92;;;18.30;91.60;;;;;;5101269;28;20072;-57
2023/04/05 04:47:45;;;;;;;3.15;2.08;;;18.20;91.60;;;;;;5099260;28;20032;-57
2023/04/05 04:50:11;;;;;;;2.10;1.90;;;18.30;91.50;;;;;;5100904;28;20470;-56
2023/04/05 04:52:39;;;;;;;4.38;2.58;;;18.20;91.80;;;;;;5065887;28;20109;-57
2023/04/05 04:55:05;;;;;;;5.15;1.77;;;18.30;91.40;;;;;;5062731;28;20031;-56
2023/04/05 04:57:31;;;;;;;3.30;2.38;;;18.40;91.40;;;;;;5082774;28;20376;-56
2023/04/05 04:59:56;;;;;;;4.55;2.38;;;18.30;91.40;;;;;;5082868;28;20020;-57
2023/04/05 05:02:23;;;;;;;2.78;2.30;;;18.30;91.40;;;;;;5075964;28;20434;-57
2023/04/05 05:04:48;;;;;;;3.08;2.10;;;18.20;91.40;;;;;;5080938;28;20106;-57
2023/04/05 05:07:14;;;;;;;2.72;2.20;;;18.30;91.40;;;;;;5085009;28;20040;-57
2023/04/05 05:09:40;;;;;;;8.23;2.70;;;18.30;91.40;;;;;;5084458;28;20048;-56
2023/04/05 05:12:05;;;;;;;2.00;1.80;;;18.20;91.30;;;;;;5081236;28;20187;-58
2023/04/05 05:14:31;;;;;;;4.93;2.30;;;18.30;91.30;;;;;;5083319;28;20032;-56
2023/04/05 05:16:57;;;;;;;2.63;2.30;;;18.30;91.40;;;;;;5078172;28;20020;-57
2023/04/05 05:19:23;;;;;;;4.30;2.45;;;18.30;91.30;;;;;;5044622;28;20027;-57
2023/04/05 05:21:49;;;;;;;3.25;2.25;;;18.30;91.40;;;;;;5082474;28;20043;-57
2023/04/05 05:24:15;;;;;;;4.05;2.60;;;18.30;91.30;;;;;;5081184;28;20020;-57
2023/04/05 05:26:40;;;;;;;5.40;2.83;;;18.30;91.30;;;;;;5079844;28;20537;-57
2023/04/05 05:29:06;;;;;;;6.30;2.80;;;18.30;91.30;;;;;;5080531;28;20442;-57
2023/04/05 05:31:32;;;;;;;2.95;2.30;;;18.20;91.30;;;;;;5084299;28;20533;-57
2023/04/05 05:33:58;;;;;;;3.97;2.30;;;18.50;91.40;;;;;;5083645;28;20104;-57
2023/04/05 05:36:26;;;;;;;3.15;2.33;;;18.30;91.40;;;;;;5082829;28;20062;-56
2023/04/05 05:38:53;;;;;;;3.30;2.38;;;18.30;91.40;;;;;;5087703;28;20047;-57
2023/04/05 05:41:18;;;;;;;3.42;2.33;;;18.30;91.40;;;;;;5082565;28;20016;-57
2023/04/05 05:43:44;;;;;;;5.90;2.53;;;18.30;91.40;;;;;;5083556;28;20031;-57
2023/04/05 05:46:09;;;;;;;3.40;2.08;;;18.30;91.40;;;;;;5078944;28;20031;-56
2023/04/05 05:48:35;;;;;;;4.50;2.33;;;18.30;91.40;;;;;;5081268;28;20036;-57
2023/04/05 05:51:01;;;;;;;2.55;2.35;;;18.30;91.40;;;;;;5083249;28;20035;-56
2023/04/05 05:53:27;;;;;;;3.97;2.75;;;18.30;91.00;;;;;;5083539;28;20070;-57
2023/04/05 05:55:52;;;;;;;6.90;2.40;;;18.30;90.70;;;;;;5083543;28;20032;-57
2023/04/05 05:58:18;;;;;;;4.03;2.20;;;18.40;90.50;;;;;;5080723;28;20016;-56
2023/04/05 06:00:43;;;;;;;3.95;2.63;;;18.40;90.40;;;;;;5081928;28;20112;-56
2023/04/05 06:03:09;;;;;;;4.72;2.22;;;18.40;90.30;;;;;;5081887;28;20402;-56
2023/04/05 06:05:35;;;;;;;6.43;3.00;;;18.50;90.30;;;;;;5082926;28;20031;-57
2023/04/05 06:08:02;;;;;;;4.60;2.72;;;18.40;90.20;;;;;;5079308;28;20025;-57
2023/04/05 06:10:28;;;;;;;4.68;2.58;;;18.50;90.10;;;;;;5063830;28;20099;-57
2023/04/05 06:12:54;;;;;;;3.30;2.33;;;18.50;90.10;;;;;;5076989;28;20031;-57
2023/04/05 06:15:19;;;;;;;2.88;2.55;;;18.50;90.00;;;;;;5085105;28;20062;-57
2023/04/05 06:17:45;;;;;;;5.80;2.70;;;18.50;90.10;;;;;;5068229;28;20060;-57
2023/04/05 06:20:11;;;;;;;3.72;3.03;;;18.50;90.00;;;;;;5085194;28;20452;-57
2023/04/05 06:22:39;;;;;;;3.83;2.75;;;18.50;89.80;;;;;;5081688;28;20105;-56
2023/04/05 06:25:06;;;;;;;4.53;2.75;;;18.50;89.60;;;;;;5080880;28;20036;-57
2023/04/05 06:27:32;;;;;;;3.88;2.67;;;18.50;89.50;;;;;;5081941;28;20048;-57
2023/04/05 06:30:00;;;;;;;3.15;2.80;;;18.50;89.30;;;;;;5081648;28;20444;-57
2023/04/05 06:32:26;;;;;;;4.70;3.08;;;18.60;89.30;;;;;;5085252;28;20016;-57
2023/04/05 06:34:52;;;;;;;5.18;2.88;;;17.90;88.80;;;;;;5081641;28;20016;-56
2023/04/05 06:37:17;;;;;;;3.33;2.35;;;18.60;89.20;;;;;;5080146;28;20027;-58
2023/04/05 06:39:43;;;;;;;4.40;2.63;;;18.60;89.10;;;;;;5082716;28;20031;-57
2023/04/05 06:42:09;;;;;;;3.65;2.58;;;18.60;89.10;;;;;;5065057;28;20446;-56
2023/04/05 06:44:34;;;;;;;3.67;2.55;;;18.60;89.00;;;;;;5081724;28;21593;-57
2023/04/05 06:47:00;;;;;;;6.15;2.70;;;18.60;89.10;;;;;;5081734;28;20024;-56
2023/04/05 06:49:25;;;;;;;3.70;2.30;;;18.60;89.00;;;;;;5082156;28;20052;-57
2023/04/05 06:51:51;;;;;;;3.08;2.28;;;18.60;89.00;;;;;;5085444;28;20036;-56
2023/04/05 06:54:17;;;;;;;5.88;2.40;;;18.60;88.90;;;;;;5081955;28;20029;-57
2023/04/05 06:56:42;;;;;;;4.15;2.60;;;18.60;88.80;;;;;;5081047;28;20024;-57
2023/04/05 06:59:08;;;;;;;5.63;2.65;;;18.60;88.80;;;;;;5079921;28;20643;-56
2023/04/05 07:01:33;;;;;;;3.70;2.75;;;18.60;88.80;;;;;;5080990;28;20443;-56
2023/04/05 07:03:59;;;;;;;4.20;2.55;;;18.60;88.90;;;;;;5079219;28;20140;-56
2023/04/05 07:06:24;;;;;;;4.30;2.42;;;18.70;88.90;;;;;;5084900;28;20571;-57
2023/04/05 07:08:51;;;;;;;4.43;2.55;;;18.70;88.80;;;;;;5083697;28;20069;-58
2023/04/05 07:11:16;;;;;;;2.75;2.17;;;18.60;88.70;;;;;;5048975;28;20100;-57
2023/04/05 07:13:42;;;;;;;4.03;2.30;;;18.70;88.70;;;;;;5084100;28;20795;-56
2023/04/05 07:16:08;;;;;;;4.22;2.50;;;18.70;88.80;;;;;;5082707;28;20032;-56
2023/04/05 07:18:33;;;;;;;3.83;2.28;;;18.70;88.80;;;;;;5081485;28;20036;-57
2023/04/05 07:20:59;;;;;;;6.65;2.80;;;18.70;88.80;;;;;;5083514;28;20482;-57
2023/04/05 07:23:26;;;;;;;3.35;2.25;;;18.70;88.60;;;;;;5086654;28;20240;-57
2023/04/05 07:25:52;;;;;;;3.60;2.03;;;18.70;88.60;;;;;;5089483;28;20020;-54
2023/04/05 07:28:17;;;;;;;4.25;2.80;;;18.50;89.90;;;;;;5096244;28;20047;-63
2023/04/05 07:30:43;;;;;;;4.05;2.30;;;18.80;87.60;;;;;;5084602;28;20024;-64
2023/04/05 07:33:08;;;;;;;4.57;2.78;;;18.70;88.50;;;;;;5083761;28;20015;-64
2023/04/05 07:35:34;;;;;;;2.65;1.83;;;18.70;88.80;;;;;;5080491;28;20149;-59
2023/04/05 07:38:00;;;;;;;3.88;3.00;;;18.70;89.40;;;;;;5079342;28;20486;-58
2023/04/05 07:40:26;;;;;;;7.13;2.47;;;18.70;89.70;;;;;;5077661;28;20020;-61
2023/04/05 07:42:52;;;;;;;4.00;2.28;;;18.70;90.00;;;;;;5083454;28;20031;-60
2023/04/05 07:45:17;;;;;;;3.88;2.50;;;18.70;90.00;;;;;;5091078;28;20043;-64
2023/04/05 07:47:43;;;;;;;5.38;2.70;;;18.70;89.90;;;;;;5091229;28;20023;-65
2023/04/05 07:50:10;;;;;;;4.80;2.60;;;18.70;89.60;;;;;;5090125;28;20016;-60
2023/04/05 07:52:36;;;;;;;5.57;2.60;;;18.70;89.40;;;;;;5093098;28;20032;-60
2023/04/05 07:55:02;;;;;;;4.35;2.58;;;19.50;89.80;;;;;;5099177;28;20587;-61
2023/04/05 07:57:27;;;;;;;3.45;2.53;;;18.70;88.70;;;;;;5078661;28;20028;-65
2023/04/05 07:59:54;;;;;;;3.17;2.42;;;18.70;89.30;;;;;;5082807;28;20054;-67
2023/04/05 08:02:20;;;;;;;2.88;2.22;;;18.80;88.90;;;;;;5097709;28;20654;-66
2023/04/05 08:04:45;;;;;;;4.20;2.55;;;18.80;89.20;;;;;;5085174;28;20044;-63
2023/04/05 08:07:11;;;;;;;4.05;2.92;;;18.90;88.90;;;;;;5079620;28;20020;-63
2023/04/05 08:09:36;;;;;;;2.70;2.30;;;18.90;88.90;;;;;;5088493;28;20020;-64
2023/04/05 08:12:02;;;;;;;3.55;2.30;;;19.20;88.90;;;;;;5088839;28;20020;-63
2023/04/05 08:14:28;;;;;;;2.90;2.25;;;18.90;88.60;;;;;;5093522;28;20023;-63
2023/04/05 08:16:53;;;;;;;3.03;2.33;;;19.00;88.30;;;;;;5091430;28;20047;-63
2023/04/05 08:19:19;;;;;;;4.05;2.47;;;19.00;88.30;;;;;;5092934;28;20050;-59
2023/04/05 08:21:44;;;;;;;3.70;2.10;;;19.00;88.90;;;;;;5089912;28;20047;-61
2023/04/05 08:24:10;;;;;;;3.78;2.38;;;19.00;88.30;;;;;;5086273;28;20542;-59
2023/04/05 08:26:35;;;;;;;2.92;2.53;;;19.10;88.20;;;;;;5093174;28;20378;-60
2023/04/05 08:29:01;;;;;;;6.53;2.30;;;19.10;87.80;;;;;;5092551;28;20031;-61
2023/04/05 08:31:27;;;;;;;4.28;1.67;;;19.10;87.90;;;;;;5094004;28;20011;-58
2023/04/05 08:33:52;;;;;;;3.15;2.28;;;19.10;87.70;;;;;;5093842;28;20012;-60
2023/04/05 08:36:18;;;;;;;3.70;2.45;;;19.10;87.90;;;;;;5089296;28;20044;-59
2023/04/05 08:38:43;;;;;;;4.40;2.10;;;19.10;87.90;;;;;;5089123;28;20034;-59
2023/04/05 08:41:20;;;;;;;2.22;1.73;;;19.10;87.80;;;;;;5085204;28;20024;-59
2023/04/05 08:44:02;;;;;;;4.15;2.42;;;19.20;87.90;;;;;;5086106;28;20470;-60
2023/04/05 08:46:34;;;;;;;2.55;1.80;;;19.20;87.80;;;;;;5088274;28;20107;-62
2023/04/05 08:49:07;;;;;;;2.17;1.85;;;19.20;87.50;;;;;;5094173;28;20024;-63
2023/04/05 08:51:32;;;;;;;2.00;1.77;;;19.20;87.80;;;;;;5090247;28;20381;-66
2023/04/05 08:53:58;;;;;;;2.25;1.90;;;19.20;87.30;;;;;;5090245;28;20099;-62
2023/04/05 08:56:31;;;;;;;2.97;2.10;;;19.30;87.60;;;;;;5089707;28;20051;-60
2023/04/05 08:59:07;;;;;;;3.25;2.15;;;19.30;87.40;;;;;;5091323;28;20082;-60
2023/04/05 09:01:35;;;;;;;2.17;1.50;;;19.30;87.60;;;;;;5064386;28;20108;-60
2023/04/05 09:04:17;;;;;;;3.10;2.08;;;19.30;86.90;;;;;;5070824;28;20367;-61
2023/04/05 09:06:43;;;;;;;3.47;2.10;;;19.30;86.30;;;;;;5067226;28;20031;-60
2023/04/05 09:09:09;;;;;;;5.40;1.88;;;19.20;84.20;;;;;;5085873;28;20028;-60
2023/04/05 09:11:35;;;;;;;3.08;2.25;;;19.20;83.40;;;;;;5092614;28;20028;-60
2023/04/05 09:14:06;;;;;;;4.28;2.00;;;19.20;83.20;;;;;;5091887;28;20039;-60
2023/04/05 09:16:39;;;;;;;3.38;2.17;;;19.20;83.00;;;;;;5094316;28;20020;-60
2023/04/05 09:19:05;;;;;;;2.53;1.92;;;19.20;83.00;;;;;;5094107;28;20568;-60
2023/04/05 09:21:50;;;;;;;4.35;2.15;;;19.20;83.50;;;;;;5095191;28;20066;-60
2023/04/05 09:24:32;;;;;;;2.85;2.38;;;19.20;82.80;;;;;;5076105;28;20024;-59
2023/04/05 09:27:04;;;;;;;3.88;2.03;;;19.20;82.70;;;;;;5077891;28;20047;-60
2023/04/05 09:29:30;;;;;;;3.55;1.80;;;19.20;82.70;;;;;;5064074;28;20028;-60
2023/04/05 09:31:55;;;;;;;2.00;1.60;;;19.20;82.60;;;;;;5078998;28;20157;-60
2023/04/05 09:34:21;;;;;;;3.05;2.10;;;19.20;82.50;;;;;;5093395;28;20031;-59
2023/04/05 09:36:46;;;;;;;3.05;2.08;;;19.20;82.40;;;;;;5079562;28;20012;-60
2023/04/05 09:39:12;;;;;;;2.38;2.15;;;19.10;82.30;;;;;;5093621;28;20043;-60
2023/04/05 09:41:38;;;;;;;2.88;1.98;;;19.20;82.30;;;;;;5095824;28;20310;-59
2023/04/05 09:44:03;;;;;;;3.58;2.10;;;19.20;82.40;;;;;;5102808;28;20035;-60
2023/04/05 09:46:33;;;;;;;2.75;2.10;;;19.20;82.30;;;;;;5104152;28;20465;-59
2023/04/05 09:48:59;;;;;;;4.68;2.55;;;19.20;82.20;;;;;;5101995;28;20205;-59
2023/04/05 09:51:34;;;;;;;2.60;1.67;;;19.20;82.10;;;;;;5095568;28;20035;-59
2023/04/05 09:54:01;;;;;;;2.58;2.13;;;19.20;82.10;;;;;;5085205;28;20428;-60
2023/04/05 09:56:27;;;;;;;2.25;2.00;;;19.20;82.10;;;;;;5069383;28;20062;-60
2023/04/05 09:58:58;;;;;;;3.97;1.88;;;19.20;81.90;;;;;;5088144;28;20028;-60
2023/04/05 10:01:27;;;;;;;2.63;1.73;;;19.20;81.90;;;;;;5081317;28;20103;-59
2023/04/05 10:03:53;;;;;;;2.70;1.77;;;19.20;81.80;;;;;;5065210;28;20020;-59
2023/04/05 10:06:18;;;;;;;2.45;1.88;;;19.20;82.40;;;;;;5097209;28;20430;-59
2023/04/05 10:08:46;;;;;;;2.03;1.63;;;19.20;81.60;;;;;;5095978;28;20021;-60
2023/04/05 10:11:12;;;;;;;2.38;1.75;;;19.20;81.70;;;;;;5066644;28;20093;-60
2023/04/05 10:13:38;;;;;;;3.25;1.92;;;19.20;81.50;;;;;;5084764;28;20218;-59
2023/04/05 10:16:03;;;;;;;3.75;2.10;;;19.20;81.50;;;;;;5080416;28;20038;-59
2023/04/05 10:18:31;;;;;;;3.38;1.67;;;19.20;81.60;;;;;;5047836;28;20028;-60
2023/04/05 10:20:57;;;;;;;2.47;1.70;;;19.20;81.60;;;;;;5062561;28;20035;-59
2023/04/05 10:23:31;;;;;;;2.58;2.03;;;19.20;81.50;;;;;;5080526;28;20016;-60
2023/04/05 10:26:07;;;;;;;2.25;1.60;;;19.30;81.50;;;;;;5083843;28;20111;-60
2023/04/05 10:28:34;;;;;;;3.35;2.08;;;19.30;81.60;;;;;;5064352;28;20064;-59
2023/04/05 10:31:18;;;;;;;3.15;2.10;;;19.30;81.50;;;;;;5066064;28;20096;-59
2023/04/05 10:33:46;;;;;;;2.10;1.50;;;19.30;81.50;;;;;;5066166;28;20032;-59
2023/04/05 10:36:22;;;;;;;2.53;1.90;;;19.30;81.50;;;;;;5044739;28;20445;-60
2023/04/05 10:38:58;;;;;;;2.03;1.35;;;19.30;81.50;;;;;;5060808;28;20435;-59
2023/04/05 10:41:24;;;;;;;2.35;1.88;;;19.30;81.50;;;;;;5060517;28;20451;-59
2023/04/05 10:43:49;;;;;;;2.47;1.80;;;19.20;81.40;;;;;;5060779;28;20029;-60
2023/04/05 10:46:21;;;;;;;4.70;1.85;;;19.30;81.50;;;;;;5063058;28;20032;-60
2023/04/05 10:48:49;;;;;;;4.28;1.98;;;19.30;81.60;;;;;;5064588;28;20033;-60
2023/04/05 10:51:14;;;;;;;6.03;1.83;;;19.30;81.60;;;;;;5064094;28;20031;-59
2023/04/05 10:53:40;;;;;;;2.90;1.70;;;19.30;81.60;;;;;;5065611;28;20416;-59
2023/04/05 10:56:06;;;;;;;2.55;1.65;;;19.30;81.50;;;;;;5061684;28;20059;-59
2023/04/05 10:58:31;;;;;;;6.15;2.00;;;19.30;81.50;;;;;;5061124;28;20040;-60
2023/04/05 11:00:57;;;;;;;4.03;1.75;;;19.30;81.40;;;;;;5060412;28;20047;-60
2023/04/05 11:03:47;;;;;;;3.10;1.60;;;19.30;81.40;;;;;;5065568;28;20017;-60
2023/04/05 11:06:20;;;;;;;2.05;1.38;;;19.30;81.40;;;;;;5063646;28;20359;-60
2023/04/05 11:08:47;;;;;;;1.85;1.25;;;19.30;81.50;;;;;;5065412;28;20031;-59
2023/04/05 11:11:17;;;;;;;3.13;1.60;;;19.40;81.50;;;;;;5062248;28;20462;-59
2023/04/05 11:13:50;;;;;;;3.13;1.65;;;19.30;81.40;;;;;;5065131;28;20020;-59
2023/04/05 11:16:15;;;;;;;3.00;1.48;;;19.30;81.40;;;;;;5060141;28;20577;-57
2023/04/05 11:18:46;;;;;;;1.75;1.48;;;19.30;81.30;;;;;;5059930;28;20049;-58
2023/04/05 11:21:11;;;;;;;2.85;1.58;;;19.30;81.40;;;;;;5059814;28;20032;-58
2023/04/05 11:24:11;;;;;;;4.03;2.00;;;19.40;81.40;;;;;;5043606;28;20025;-57
2023/04/05 11:26:39;;;;;;;1.80;1.45;;;19.40;81.40;;;;;;5066029;28;20037;-60
2023/04/05 11:29:05;;;;;;;3.50;1.73;;;19.30;81.20;;;;;;5083077;28;20038;-60
2023/04/05 11:31:31;;;;;;;1.67;1.58;;;19.40;81.30;;;;;;5067353;28;20382;-58
2023/04/05 11:33:58;;;;;;;1.70;1.50;;;19.40;81.40;;;;;;5084095;28;20020;-58
2023/04/05 11:36:51;;;;;;;2.22;1.60;;;19.40;81.30;;;;;;5079654;28;20020;-57
2023/04/05 11:39:22;;;;;;;1.90;1.58;;;19.40;81.40;;;;;;5079419;28;20059;-58
2023/04/05 11:42:02;;;;;;;3.40;1.58;;;19.70;81.40;;;;;;5081488;28;20524;-58
2023/04/05 11:44:45;;;;;;;2.50;1.55;;;19.40;81.20;;;;;;5084674;28;20085;-58
2023/04/05 11:47:11;;;;;;;1.90;1.42;;;19.40;81.10;;;;;;5082845;28;20083;-57
2023/04/05 11:49:37;;;;;;;1.67;1.50;;;19.40;81.10;;;;;;5084523;28;20095;-58
2023/04/05 11:52:11;;;;;;;1.88;1.35;;;19.40;81.10;;;;;;5085165;28;20066;-57
2023/04/05 11:54:36;;;;;;;2.22;1.35;;;19.40;81.10;;;;;;5079310;28;20107;-58
2023/04/05 11:57:02;;;;;;;2.35;1.70;;;19.40;81.00;;;;;;5079564;28;20091;-58
2023/04/05 11:59:34;;;;;;;2.15;1.50;;;19.40;81.00;;;;;;5084301;28;20024;-58
2023/04/05 12:02:06;;;;;;;2.78;1.67;;;19.40;81.00;;;;;;5082853;28;20405;-58
2023/04/05 12:04:31;;;;;;;2.08;1.50;;;19.40;81.00;;;;;;5085127;28;20090;-59
2023/04/05 12:07:28;;;;;;;3.53;1.50;;;19.40;81.00;;;;;;5084510;28;20458;-60
2023/04/05 12:10:03;;;;;;;2.10;1.27;;;19.40;81.00;;;;;;5061531;28;20446;-59
2023/04/05 12:12:32;;;;;;;;;;;19.40;81.00;;;;;;5081247;28;20099;-60
2023/04/05 12:14:59;;;;;;;3.38;1.50;;;19.40;81.00;;;;;;5080882;28;19908;-60
2023/04/05 12:17:54;;;;;;;3.08;1.42;;;19.40;81.00;;;;;;5079080;28;20309;-59
2023/04/05 12:20:23;;;;;;;1.92;1.50;;;19.40;81.00;;;;;;5057568;28;20474;-59
2023/04/05 12:22:50;;;;;;;1.40;1.30;;;19.40;80.90;;;;;;5084007;28;20047;-59
2023/04/05 12:25:16;;;;;;;2.97;1.80;;;19.40;80.90;;;;;;5064586;28;20032;-60
2023/04/05 12:27:42;;;;;;;1.88;1.40;;;19.40;81.00;;;;;;5081503;28;20048;-60
2023/04/05 12:30:13;;;;;;;1.98;1.45;;;19.40;80.90;;;;;;5078016;28;20111;-58
2023/04/05 12:32:53;;;;;;;1.45;1.35;;;19.40;80.90;;;;;;5081864;28;20012;-60
2023/04/05 12:35:21;;;;;;;2.67;1.30;;;19.40;80.90;;;;;;5083743;28;20866;-58
2023/04/05 12:37:46;;;;;;;1.40;1.17;;;19.40;80.80;;;;;;5084604;28;20103;-58
2023/04/05 12:40:12;;;;;;;2.22;1.60;;;19.40;80.70;;;;;;5082110;28;21114;-59
2023/04/05 12:42:38;;;;;;;2.05;1.58;;;19.40;80.50;;;;;;5078911;28;20029;-60
2023/04/05 12:45:13;;;;;;;2.08;1.30;;;19.40;80.50;;;;;;5081818;28;20031;-60
2023/04/05 12:47:51;;;;;;;1.40;1.30;;;19.40;80.50;;;;;;5083547;28;20346;-60
2023/04/05 12:50:17;;;;;;;2.85;1.50;;;19.40;80.50;;;;;;5083125;28;20031;-60
2023/04/05 12:52:53;;;;;;;3.95;1.30;;;19.40;81.10;;;;;;5087650;28;20085;-59
2023/04/05 12:55:20;;;;;;;2.75;1.70;;;19.40;80.30;;;;;;5083945;28;20106;-60